sensor_id;sensor_type;location;lat;lon;timestamp;temperature;humidity
24430;DHT22;12613;47.408;8.412;2023-08-31T00:01:39;17.10;91.50
24430;DHT22;12613;47.408;8.412;2023-08-31T00:04:05;17.20;91.60
24430;DHT22;12613;47.408;8.412;2023-08-31T00:06:34;17.20;91.60
24430;DHT22;12613;47.408;8.412;2023-08-31T00:08:59;17.20;91.60
24430;DHT22;12613;47.408;8.412;2023-08-31T00:11:25;17.20;91.70
24430;DHT22;12613;47.408;8.412;2023-08-31T00:13:51;17.20;91.70
24430;DHT22;12613;47.408;8.412;2023-08-31T00:16:20;17.30;91.60
24430;DHT22;12613;47.408;8.412;2023-08-31T00:18:49;17.30;91.60
24430;DHT22;12613;47.408;8.412;2023-08-31T00:21:14;17.20;91.70
24430;DHT22;12613;47.408;8.412;2023-08-31T00:23:40;17.20;91.70
24430;DHT22;12613;47.408;8.412;2023-08-31T00:26:06;17.30;91.70
24430;DHT22;12613;47.408;8.412;2023-08-31T00:28:32;17.30;91.70
24430;DHT22;12613;47.408;8.412;2023-08-31T00:31:00;17.30;91.70
24430;DHT22;12613;47.408;8.412;2023-08-31T00:33:29;17.20;91.70
24430;DHT22;12613;47.408;8.412;2023-08-31T00:35:58;17.20;91.70
24430;DHT22;12613;47.408;8.412;2023-08-31T00:38:27;17.20;91.70
24430;DHT22;12613;47.408;8.412;2023-08-31T00:40:52;17.20;91.70
24430;DHT22;12613;47.408;8.412;2023-08-31T00:43:19;17.20;91.80
24430;DHT22;12613;47.408;8.412;2023-08-31T00:45:46;17.20;91.80
24430;DHT22;12613;47.408;8.412;2023-08-31T00:48:15;17.20;91.80
24430;DHT22;12613;47.408;8.412;2023-08-31T00:50:43;17.20;91.90
24430;DHT22;12613;47.408;8.412;2023-08-31T00:53:09;17.20;91.70
24430;DHT22;12613;47.408;8.412;2023-08-31T00:55:35;17.10;91.80
24430;DHT22;12613;47.408;8.412;2023-08-31T00:58:00;17.10;92.00
24430;DHT22;12613;47.408;8.412;2023-08-31T01:03:39;17.10;91.90
24430;DHT22;12613;47.408;8.412;2023-08-31T01:06:14;17.10;92.00
24430;DHT22;12613;47.408;8.412;2023-08-31T01:11:39;17.00;91.90
24430;DHT22;12613;47.408;8.412;2023-08-31T01:14:16;17.00;92.00
24430;DHT22;12613;47.408;8.412;2023-08-31T01:16:47;17.00;92.00
24430;DHT22;12613;47.408;8.412;2023-08-31T01:24:59;17.00;92.00
24430;DHT22;12613;47.408;8.412;2023-08-31T01:27:32;17.00;92.10
24430;DHT22;12613;47.408;8.412;2023-08-31T01:29:58;17.00;92.00
24430;DHT22;12613;47.408;8.412;2023-08-31T01:32:24;17.00;92.00
24430;DHT22;12613;47.408;8.412;2023-08-31T01:34:53;16.90;92.10
24430;DHT22;12613;47.408;8.412;2023-08-31T01:37:35;16.90;92.10
24430;DHT22;12613;47.408;8.412;2023-08-31T01:40:16;16.90;92.10
24430;DHT22;12613;47.408;8.412;2023-08-31T01:42:43;17.00;92.10
24430;DHT22;12613;47.408;8.412;2023-08-31T01:45:16;16.90;92.20
24430;DHT22;12613;47.408;8.412;2023-08-31T01:47:44;16.90;92.20
24430;DHT22;12613;47.408;8.412;2023-08-31T01:50:11;16.90;92.30
24430;DHT22;12613;47.408;8.412;2023-08-31T01:52:36;16.90;92.20
24430;DHT22;12613;47.408;8.412;2023-08-31T01:55:03;17.00;92.30
24430;DHT22;12613;47.408;8.412;2023-08-31T01:57:29;17.00;92.30
24430;DHT22;12613;47.408;8.412;2023-08-31T01:59:54;17.00;92.30
24430;DHT22;12613;47.408;8.412;2023-08-31T02:02:20;17.00;92.30
24430;DHT22;12613;47.408;8.412;2023-08-31T02:04:46;17.00;92.40
24430;DHT22;12613;47.408;8.412;2023-08-31T02:07:12;17.00;92.20
24430;DHT22;12613;47.408;8.412;2023-08-31T02:09:37;17.00;92.30
24430;DHT22;12613;47.408;8.412;2023-08-31T02:12:03;17.00;92.40
24430;DHT22;12613;47.408;8.412;2023-08-31T02:14:30;17.00;92.50
24430;DHT22;12613;47.408;8.412;2023-08-31T02:16:55;17.00;92.40
24430;DHT22;12613;47.408;8.412;2023-08-31T02:19:21;17.10;92.50
24430;DHT22;12613;47.408;8.412;2023-08-31T02:21:47;17.10;92.50
24430;DHT22;12613;47.408;8.412;2023-08-31T02:24:13;17.10;92.40
24430;DHT22;12613;47.408;8.412;2023-08-31T02:26:39;17.10;92.40
24430;DHT22;12613;47.408;8.412;2023-08-31T02:29:04;17.10;92.40
24430;DHT22;12613;47.408;8.412;2023-08-31T02:31:30;17.10;92.40
24430;DHT22;12613;47.408;8.412;2023-08-31T02:33:55;17.10;92.40
24430;DHT22;12613;47.408;8.412;2023-08-31T02:36:21;17.10;92.50
24430;DHT22;12613;47.408;8.412;2023-08-31T02:38:47;17.10;92.50
24430;DHT22;12613;47.408;8.412;2023-08-31T02:41:12;17.10;92.40
24430;DHT22;12613;47.408;8.412;2023-08-31T02:43:39;17.10;92.40
24430;DHT22;12613;47.408;8.412;2023-08-31T02:46:05;17.10;92.50
24430;DHT22;12613;47.408;8.412;2023-08-31T02:48:34;17.10;92.50
24430;DHT22;12613;47.408;8.412;2023-08-31T02:51:00;17.10;92.50
24430;DHT22;12613;47.408;8.412;2023-08-31T02:53:27;17.10;92.40
24430;DHT22;12613;47.408;8.412;2023-08-31T02:55:53;17.10;92.50
24430;DHT22;12613;47.408;8.412;2023-08-31T02:58:18;17.10;92.50
24430;DHT22;12613;47.408;8.412;2023-08-31T03:00:45;17.10;92.50
24430;DHT22;12613;47.408;8.412;2023-08-31T03:03:14;17.10;92.50
24430;DHT22;12613;47.408;8.412;2023-08-31T03:05:40;17.10;92.60
24430;DHT22;12613;47.408;8.412;2023-08-31T03:08:05;17.10;92.60
24430;DHT22;12613;47.408;8.412;2023-08-31T03:10:31;17.10;92.60
24430;DHT22;12613;47.408;8.412;2023-08-31T03:12:57;17.10;92.80
24430;DHT22;12613;47.408;8.412;2023-08-31T03:15:22;17.10;93.10
24430;DHT22;12613;47.408;8.412;2023-08-31T03:17:48;17.10;92.80
24430;DHT22;12613;47.408;8.412;2023-08-31T03:20:14;17.00;92.80
24430;DHT22;12613;47.408;8.412;2023-08-31T03:22:40;17.10;92.90
24430;DHT22;12613;47.408;8.412;2023-08-31T03:25:05;17.10;92.90
24430;DHT22;12613;47.408;8.412;2023-08-31T03:27:31;17.10;93.00
24430;DHT22;12613;47.408;8.412;2023-08-31T03:29:57;17.00;92.90
24430;DHT22;12613;47.408;8.412;2023-08-31T03:32:23;17.10;93.00
24430;DHT22;12613;47.408;8.412;2023-08-31T03:34:48;17.10;93.10
24430;DHT22;12613;47.408;8.412;2023-08-31T03:37:15;17.10;93.20
24430;DHT22;12613;47.408;8.412;2023-08-31T03:39:41;17.20;93.20
24430;DHT22;12613;47.408;8.412;2023-08-31T03:42:08;17.20;93.00
24430;DHT22;12613;47.408;8.412;2023-08-31T03:44:35;17.10;93.00
24430;DHT22;12613;47.408;8.412;2023-08-31T03:47:00;17.10;93.00
24430;DHT22;12613;47.408;8.412;2023-08-31T03:49:26;17.10;93.00
24430;DHT22;12613;47.408;8.412;2023-08-31T03:51:52;17.10;92.70
24430;DHT22;12613;47.408;8.412;2023-08-31T03:54:19;17.00;92.80
24430;DHT22;12613;47.408;8.412;2023-08-31T03:56:45;17.00;92.80
24430;DHT22;12613;47.408;8.412;2023-08-31T03:59:12;17.00;92.80
24430;DHT22;12613;47.408;8.412;2023-08-31T04:01:37;16.90;92.80
24430;DHT22;12613;47.408;8.412;2023-08-31T04:04:03;16.90;92.70
24430;DHT22;12613;47.408;8.412;2023-08-31T04:06:30;16.90;92.60
24430;DHT22;12613;47.408;8.412;2023-08-31T04:08:55;16.90;92.60
24430;DHT22;12613;47.408;8.412;2023-08-31T04:11:21;16.80;92.50
24430;DHT22;12613;47.408;8.412;2023-08-31T04:13:47;16.80;92.50
24430;DHT22;12613;47.408;8.412;2023-08-31T04:16:13;16.80;92.50
24430;DHT22;12613;47.408;8.412;2023-08-31T04:18:39;16.80;92.50
24430;DHT22;12613;47.408;8.412;2023-08-31T04:21:05;16.80;92.50
24430;DHT22;12613;47.408;8.412;2023-08-31T04:23:31;16.80;92.50
24430;DHT22;12613;47.408;8.412;2023-08-31T04:25:57;16.80;92.50
24430;DHT22;12613;47.408;8.412;2023-08-31T04:28:23;16.80;92.50
24430;DHT22;12613;47.408;8.412;2023-08-31T04:30:49;16.80;92.50
24430;DHT22;12613;47.408;8.412;2023-08-31T04:33:15;16.80;92.50
24430;DHT22;12613;47.408;8.412;2023-08-31T04:35:41;16.80;92.40
24430;DHT22;12613;47.408;8.412;2023-08-31T04:38:07;16.70;92.50
24430;DHT22;12613;47.408;8.412;2023-08-31T04:40:33;16.70;92.30
24430;DHT22;12613;47.408;8.412;2023-08-31T04:42:58;16.70;92.40
24430;DHT22;12613;47.408;8.412;2023-08-31T04:45:24;16.60;92.40
24430;DHT22;12613;47.408;8.412;2023-08-31T04:47:50;16.60;92.60
24430;DHT22;12613;47.408;8.412;2023-08-31T04:50:17;16.70;92.70
24430;DHT22;12613;47.408;8.412;2023-08-31T04:52:42;16.70;92.70
24430;DHT22;12613;47.408;8.412;2023-08-31T04:55:08;16.70;92.70
24430;DHT22;12613;47.408;8.412;2023-08-31T04:57:34;16.70;92.80
24430;DHT22;12613;47.408;8.412;2023-08-31T05:00:00;16.70;92.90
24430;DHT22;12613;47.408;8.412;2023-08-31T05:02:27;16.70;93.00
24430;DHT22;12613;47.408;8.412;2023-08-31T05:04:53;16.70;93.00
24430;DHT22;12613;47.408;8.412;2023-08-31T05:07:18;16.70;93.10
24430;DHT22;12613;47.408;8.412;2023-08-31T05:09:44;16.60;93.00
24430;DHT22;12613;47.408;8.412;2023-08-31T05:12:09;16.60;93.10
24430;DHT22;12613;47.408;8.412;2023-08-31T05:14:35;16.60;93.10
24430;DHT22;12613;47.408;8.412;2023-08-31T05:17:06;16.50;93.20
24430;DHT22;12613;47.408;8.412;2023-08-31T05:19:32;16.50;93.30
24430;DHT22;12613;47.408;8.412;2023-08-31T05:21:57;16.40;93.50
24430;DHT22;12613;47.408;8.412;2023-08-31T05:24:23;16.40;93.50
24430;DHT22;12613;47.408;8.412;2023-08-31T05:26:49;16.40;93.70
24430;DHT22;12613;47.408;8.412;2023-08-31T05:29:15;16.40;94.00
24430;DHT22;12613;47.408;8.412;2023-08-31T05:31:41;16.50;94.20
24430;DHT22;12613;47.408;8.412;2023-08-31T05:34:06;16.50;94.20
24430;DHT22;12613;47.408;8.412;2023-08-31T05:36:32;16.50;94.20
24430;DHT22;12613;47.408;8.412;2023-08-31T05:38:58;16.60;94.20
24430;DHT22;12613;47.408;8.412;2023-08-31T05:41:23;16.60;94.30
24430;DHT22;12613;47.408;8.412;2023-08-31T05:43:50;16.60;94.20
24430;DHT22;12613;47.408;8.412;2023-08-31T05:46:15;16.50;94.30
24430;DHT22;12613;47.408;8.412;2023-08-31T05:48:41;16.60;94.30
24430;DHT22;12613;47.408;8.412;2023-08-31T05:51:07;16.60;94.50
24430;DHT22;12613;47.408;8.412;2023-08-31T05:53:32;16.60;94.50
24430;DHT22;12613;47.408;8.412;2023-08-31T05:55:59;16.60;94.60
24430;DHT22;12613;47.408;8.412;2023-08-31T05:58:35;16.60;94.70
24430;DHT22;12613;47.408;8.412;2023-08-31T06:01:01;16.60;95.00
24430;DHT22;12613;47.408;8.412;2023-08-31T06:03:27;16.60;95.00
24430;DHT22;12613;47.408;8.412;2023-08-31T06:05:55;16.60;94.80
24430;DHT22;12613;47.408;8.412;2023-08-31T06:08:21;16.70;94.90
24430;DHT22;12613;47.408;8.412;2023-08-31T06:10:47;16.70;94.90
24430;DHT22;12613;47.408;8.412;2023-08-31T06:13:12;16.70;95.00
24430;DHT22;12613;47.408;8.412;2023-08-31T06:15:38;16.70;95.00
24430;DHT22;12613;47.408;8.412;2023-08-31T06:18:05;16.70;94.90
24430;DHT22;12613;47.408;8.412;2023-08-31T06:20:31;16.70;95.00
24430;DHT22;12613;47.408;8.412;2023-08-31T06:22:56;16.70;95.10
24430;DHT22;12613;47.408;8.412;2023-08-31T06:25:22;16.70;95.20
24430;DHT22;12613;47.408;8.412;2023-08-31T06:27:48;16.70;95.30
24430;DHT22;12613;47.408;8.412;2023-08-31T06:30:14;16.80;95.30
24430;DHT22;12613;47.408;8.412;2023-08-31T06:32:43;16.80;95.20
24430;DHT22;12613;47.408;8.412;2023-08-31T06:35:10;16.80;95.40
24430;DHT22;12613;47.408;8.412;2023-08-31T06:37:36;16.80;95.40
24430;DHT22;12613;47.408;8.412;2023-08-31T06:40:02;16.80;95.40
24430;DHT22;12613;47.408;8.412;2023-08-31T06:42:27;16.80;95.50
24430;DHT22;12613;47.408;8.412;2023-08-31T06:44:53;16.90;95.50
24430;DHT22;12613;47.408;8.412;2023-08-31T06:47:21;16.90;95.60
24430;DHT22;12613;47.408;8.412;2023-08-31T06:49:47;16.90;95.70
24430;DHT22;12613;47.408;8.412;2023-08-31T06:52:12;17.00;95.70
24430;DHT22;12613;47.408;8.412;2023-08-31T06:54:38;17.00;95.60
24430;DHT22;12613;47.408;8.412;2023-08-31T06:57:04;17.00;95.60
24430;DHT22;12613;47.408;8.412;2023-08-31T06:59:29;17.00;95.70
24430;DHT22;12613;47.408;8.412;2023-08-31T07:01:55;16.90;95.50
24430;DHT22;12613;47.408;8.412;2023-08-31T07:04:21;17.00;95.90
24430;DHT22;12613;47.408;8.412;2023-08-31T07:06:47;17.00;96.00
24430;DHT22;12613;47.408;8.412;2023-08-31T07:09:12;17.00;96.00
24430;DHT22;12613;47.408;8.412;2023-08-31T07:11:38;17.10;96.10
24430;DHT22;12613;47.408;8.412;2023-08-31T07:14:04;17.20;95.90
24430;DHT22;12613;47.408;8.412;2023-08-31T07:16:29;17.20;95.70
24430;DHT22;12613;47.408;8.412;2023-08-31T07:18:55;17.20;95.70
24430;DHT22;12613;47.408;8.412;2023-08-31T07:21:21;17.20;95.70
24430;DHT22;12613;47.408;8.412;2023-08-31T07:23:47;17.20;95.60
24430;DHT22;12613;47.408;8.412;2023-08-31T07:26:13;17.30;95.70
24430;DHT22;12613;47.408;8.412;2023-08-31T07:28:41;17.30;95.60
24430;DHT22;12613;47.408;8.412;2023-08-31T07:31:07;17.30;95.60
24430;DHT22;12613;47.408;8.412;2023-08-31T07:33:34;17.40;95.50
24430;DHT22;12613;47.408;8.412;2023-08-31T07:36:03;17.40;95.40
24430;DHT22;12613;47.408;8.412;2023-08-31T07:38:30;17.30;95.30
24430;DHT22;12613;47.408;8.412;2023-08-31T07:40:56;17.40;95.20
24430;DHT22;12613;47.408;8.412;2023-08-31T07:43:22;17.40;95.30
24430;DHT22;12613;47.408;8.412;2023-08-31T07:45:48;17.50;95.20
24430;DHT22;12613;47.408;8.412;2023-08-31T07:48:14;17.50;95.20
24430;DHT22;12613;47.408;8.412;2023-08-31T07:50:41;17.50;95.30
24430;DHT22;12613;47.408;8.412;2023-08-31T07:53:07;17.60;95.10
24430;DHT22;12613;47.408;8.412;2023-08-31T07:55:33;17.70;95.20
24430;DHT22;12613;47.408;8.412;2023-08-31T07:57:59;17.70;95.10
24430;DHT22;12613;47.408;8.412;2023-08-31T08:00:24;17.80;95.00
24430;DHT22;12613;47.408;8.412;2023-08-31T08:02:50;17.80;94.90
24430;DHT22;12613;47.408;8.412;2023-08-31T08:05:15;17.80;94.90
24430;DHT22;12613;47.408;8.412;2023-08-31T08:07:41;17.90;95.10
24430;DHT22;12613;47.408;8.412;2023-08-31T08:10:08;18.00;94.90
24430;DHT22;12613;47.408;8.412;2023-08-31T08:12:41;18.00;94.60
24430;DHT22;12613;47.408;8.412;2023-08-31T08:15:11;18.00;94.60
24430;DHT22;12613;47.408;8.412;2023-08-31T08:17:37;18.00;94.60
24430;DHT22;12613;47.408;8.412;2023-08-31T08:20:04;18.10;94.60
24430;DHT22;12613;47.408;8.412;2023-08-31T08:22:30;18.10;94.30
24430;DHT22;12613;47.408;8.412;2023-08-31T08:24:56;18.10;94.60
24430;DHT22;12613;47.408;8.412;2023-08-31T08:27:21;18.20;94.20
24430;DHT22;12613;47.408;8.412;2023-08-31T08:29:47;18.10;93.90
24430;DHT22;12613;47.408;8.412;2023-08-31T08:32:13;18.20;93.90
24430;DHT22;12613;47.408;8.412;2023-08-31T08:34:38;18.20;93.60
24430;DHT22;12613;47.408;8.412;2023-08-31T08:37:04;18.10;93.40
24430;DHT22;12613;47.408;8.412;2023-08-31T08:39:30;18.10;93.40
24430;DHT22;12613;47.408;8.412;2023-08-31T08:41:58;18.10;93.50
24430;DHT22;12613;47.408;8.412;2023-08-31T08:44:25;18.10;93.00
24430;DHT22;12613;47.408;8.412;2023-08-31T08:46:52;18.10;93.00
24430;DHT22;12613;47.408;8.412;2023-08-31T08:49:18;18.10;93.10
24430;DHT22;12613;47.408;8.412;2023-08-31T08:51:47;18.10;93.10
24430;DHT22;12613;47.408;8.412;2023-08-31T08:54:14;18.20;93.10
24430;DHT22;12613;47.408;8.412;2023-08-31T08:56:39;18.20;92.60
24430;DHT22;12613;47.408;8.412;2023-08-31T08:59:05;18.20;92.60
24430;DHT22;12613;47.408;8.412;2023-08-31T09:01:33;18.20;92.60
24430;DHT22;12613;47.408;8.412;2023-08-31T09:04:00;18.30;92.60
24430;DHT22;12613;47.408;8.412;2023-08-31T09:06:27;18.30;92.40
24430;DHT22;12613;47.408;8.412;2023-08-31T09:08:54;18.30;92.40
24430;DHT22;12613;47.408;8.412;2023-08-31T09:11:24;18.30;91.90
24430;DHT22;12613;47.408;8.412;2023-08-31T09:13:51;18.30;91.80
24430;DHT22;12613;47.408;8.412;2023-08-31T09:16:27;18.30;91.60
24430;DHT22;12613;47.408;8.412;2023-08-31T09:18:58;18.30;91.90
24430;DHT22;12613;47.408;8.412;2023-08-31T09:21:35;18.30;91.80
24430;DHT22;12613;47.408;8.412;2023-08-31T09:24:01;18.40;91.80
24430;DHT22;12613;47.408;8.412;2023-08-31T09:26:28;18.40;91.30
24430;DHT22;12613;47.408;8.412;2023-08-31T09:28:53;18.40;91.10
24430;DHT22;12613;47.408;8.412;2023-08-31T09:31:19;18.50;91.30
24430;DHT22;12613;47.408;8.412;2023-08-31T09:33:51;18.50;91.20
24430;DHT22;12613;47.408;8.412;2023-08-31T09:36:17;18.50;91.00
24430;DHT22;12613;47.408;8.412;2023-08-31T09:38:44;18.60;90.80
24430;DHT22;12613;47.408;8.412;2023-08-31T09:41:10;18.70;90.90
24430;DHT22;12613;47.408;8.412;2023-08-31T09:43:36;18.70;90.90
24430;DHT22;12613;47.408;8.412;2023-08-31T09:46:03;18.80;90.90
24430;DHT22;12613;47.408;8.412;2023-08-31T09:48:29;18.80;90.60
24430;DHT22;12613;47.408;8.412;2023-08-31T09:50:56;18.80;90.50
24430;DHT22;12613;47.408;8.412;2023-08-31T09:53:24;18.90;90.40
24430;DHT22;12613;47.408;8.412;2023-08-31T09:55:51;18.90;90.10
24430;DHT22;12613;47.408;8.412;2023-08-31T09:58:20;18.90;90.10
24430;DHT22;12613;47.408;8.412;2023-08-31T10:00:48;18.90;90.00
24430;DHT22;12613;47.408;8.412;2023-08-31T10:03:14;18.90;90.00
24430;DHT22;12613;47.408;8.412;2023-08-31T10:05:44;19.00;90.00
24430;DHT22;12613;47.408;8.412;2023-08-31T10:08:13;19.00;89.70
24430;DHT22;12613;47.408;8.412;2023-08-31T10:10:40;19.00;88.20
24430;DHT22;12613;47.408;8.412;2023-08-31T10:13:06;18.90;87.90
24430;DHT22;12613;47.408;8.412;2023-08-31T10:15:33;18.80;87.80
24430;DHT22;12613;47.408;8.412;2023-08-31T10:18:00;18.80;87.40
24430;DHT22;12613;47.408;8.412;2023-08-31T10:20:26;18.80;87.90
24430;DHT22;12613;47.408;8.412;2023-08-31T10:23:03;18.90;87.60
24430;DHT22;12613;47.408;8.412;2023-08-31T10:28:21;18.80;88.00
24430;DHT22;12613;47.408;8.412;2023-08-31T10:31:00;18.90;87.60
24430;DHT22;12613;47.408;8.412;2023-08-31T10:33:56;18.90;87.90
24430;DHT22;12613;47.408;8.412;2023-08-31T10:36:41;19.10;88.30
24430;DHT22;12613;47.408;8.412;2023-08-31T10:39:18;19.10;88.00
24430;DHT22;12613;47.408;8.412;2023-08-31T10:41:55;19.20;87.70
24430;DHT22;12613;47.408;8.412;2023-08-31T10:44:30;19.40;87.50
24430;DHT22;12613;47.408;8.412;2023-08-31T10:46:59;19.50;87.60
24430;DHT22;12613;47.408;8.412;2023-08-31T10:49:25;19.60;87.10
24430;DHT22;12613;47.408;8.412;2023-08-31T10:51:55;19.60;87.00
24430;DHT22;12613;47.408;8.412;2023-08-31T10:54:26;19.70;87.00
24430;DHT22;12613;47.408;8.412;2023-08-31T10:59:40;19.60;85.10
24430;DHT22;12613;47.408;8.412;2023-08-31T11:02:07;19.60;85.80
24430;DHT22;12613;47.408;8.412;2023-08-31T11:04:52;19.60;85.50
24430;DHT22;12613;47.408;8.412;2023-08-31T11:07:19;19.60;85.80
24430;DHT22;12613;47.408;8.412;2023-08-31T11:09:46;19.70;85.40
24430;DHT22;12613;47.408;8.412;2023-08-31T11:12:12;19.80;85.50
24430;DHT22;12613;47.408;8.412;2023-08-31T11:14:39;19.90;86.30
24430;DHT22;12613;47.408;8.412;2023-08-31T11:17:05;20.00;85.70
24430;DHT22;12613;47.408;8.412;2023-08-31T11:19:35;20.10;85.90
24430;DHT22;12613;47.408;8.412;2023-08-31T11:22:02;20.20;83.30
24430;DHT22;12613;47.408;8.412;2023-08-31T11:24:30;20.20;83.60
24430;DHT22;12613;47.408;8.412;2023-08-31T11:26:56;20.20;82.80
24430;DHT22;12613;47.408;8.412;2023-08-31T11:29:21;20.20;82.60
24430;DHT22;12613;47.408;8.412;2023-08-31T11:31:47;20.20;82.80
24430;DHT22;12613;47.408;8.412;2023-08-31T11:34:17;20.30;82.40
24430;DHT22;12613;47.408;8.412;2023-08-31T11:36:44;20.20;81.00
24430;DHT22;12613;47.408;8.412;2023-08-31T11:39:14;20.20;81.80
24430;DHT22;12613;47.408;8.412;2023-08-31T11:41:42;20.20;81.70
24430;DHT22;12613;47.408;8.412;2023-08-31T11:44:14;20.20;80.40
24430;DHT22;12613;47.408;8.412;2023-08-31T11:46:45;20.20;79.40
24430;DHT22;12613;47.408;8.412;2023-08-31T11:49:13;20.20;79.80
24430;DHT22;12613;47.408;8.412;2023-08-31T11:51:40;20.20;79.60
24430;DHT22;12613;47.408;8.412;2023-08-31T11:54:06;20.20;79.50
24430;DHT22;12613;47.408;8.412;2023-08-31T11:56:39;20.30;79.20
24430;DHT22;12613;47.408;8.412;2023-08-31T11:59:09;20.40;79.30
24430;DHT22;12613;47.408;8.412;2023-08-31T12:01:40;20.40;78.50
24430;DHT22;12613;47.408;8.412;2023-08-31T12:04:15;20.40;77.60
24430;DHT22;12613;47.408;8.412;2023-08-31T12:06:46;20.40;77.40
24430;DHT22;12613;47.408;8.412;2023-08-31T12:09:12;20.50;77.80
24430;DHT22;12613;47.408;8.412;2023-08-31T12:11:38;20.50;77.50
24430;DHT22;12613;47.408;8.412;2023-08-31T12:14:22;20.60;76.20
24430;DHT22;12613;47.408;8.412;2023-08-31T12:16:48;20.50;76.20
24430;DHT22;12613;47.408;8.412;2023-08-31T12:19:15;20.50;75.40
24430;DHT22;12613;47.408;8.412;2023-08-31T12:21:46;20.50;76.00
24430;DHT22;12613;47.408;8.412;2023-08-31T12:24:12;20.60;76.00
24430;DHT22;12613;47.408;8.412;2023-08-31T12:26:38;20.60;75.60
24430;DHT22;12613;47.408;8.412;2023-08-31T12:29:04;20.70;76.40
24430;DHT22;12613;47.408;8.412;2023-08-31T12:31:30;20.80;75.90
24430;DHT22;12613;47.408;8.412;2023-08-31T12:33:56;20.90;75.40
24430;DHT22;12613;47.408;8.412;2023-08-31T12:36:21;20.90;74.50
24430;DHT22;12613;47.408;8.412;2023-08-31T12:38:47;20.90;74.30
24430;DHT22;12613;47.408;8.412;2023-08-31T12:41:13;20.90;75.00
24430;DHT22;12613;47.408;8.412;2023-08-31T12:43:39;21.00;73.00
24430;DHT22;12613;47.408;8.412;2023-08-31T12:46:04;21.00;73.70
24430;DHT22;12613;47.408;8.412;2023-08-31T12:48:35;21.10;74.10
24430;DHT22;12613;47.408;8.412;2023-08-31T12:51:00;21.20;73.40
24430;DHT22;12613;47.408;8.412;2023-08-31T12:53:26;21.20;73.20
24430;DHT22;12613;47.408;8.412;2023-08-31T12:55:53;21.20;72.40
24430;DHT22;12613;47.408;8.412;2023-08-31T12:58:19;21.20;72.10
24430;DHT22;12613;47.408;8.412;2023-08-31T13:00:46;21.20;72.30
24430;DHT22;12613;47.408;8.412;2023-08-31T13:03:13;21.20;71.50
24430;DHT22;12613;47.408;8.412;2023-08-31T13:05:39;21.20;71.60
24430;DHT22;12613;47.408;8.412;2023-08-31T13:08:06;21.20;71.60
24430;DHT22;12613;47.408;8.412;2023-08-31T13:10:32;21.20;71.70
24430;DHT22;12613;47.408;8.412;2023-08-31T13:12:57;21.40;72.40
24430;DHT22;12613;47.408;8.412;2023-08-31T13:15:23;21.40;71.10
24430;DHT22;12613;47.408;8.412;2023-08-31T13:17:48;21.30;69.60
24430;DHT22;12613;47.408;8.412;2023-08-31T13:20:14;21.20;70.50
24430;DHT22;12613;47.408;8.412;2023-08-31T13:22:40;21.30;71.20
24430;DHT22;12613;47.408;8.412;2023-08-31T13:25:06;21.30;70.60
24430;DHT22;12613;47.408;8.412;2023-08-31T13:27:31;21.40;71.30
24430;DHT22;12613;47.408;8.412;2023-08-31T13:30:00;21.50;71.00
24430;DHT22;12613;47.408;8.412;2023-08-31T13:32:25;21.50;70.40
24430;DHT22;12613;47.408;8.412;2023-08-31T13:34:51;21.50;69.90
24430;DHT22;12613;47.408;8.412;2023-08-31T13:37:18;21.50;70.00
24430;DHT22;12613;47.408;8.412;2023-08-31T13:39:44;21.50;69.80
24430;DHT22;12613;47.408;8.412;2023-08-31T13:42:10;21.50;68.80
24430;DHT22;12613;47.408;8.412;2023-08-31T13:44:35;21.40;68.80
24430;DHT22;12613;47.408;8.412;2023-08-31T13:47:01;21.30;68.60
24430;DHT22;12613;47.408;8.412;2023-08-31T13:49:29;21.20;68.90
24430;DHT22;12613;47.408;8.412;2023-08-31T13:51:56;21.20;69.70
24430;DHT22;12613;47.408;8.412;2023-08-31T13:54:21;21.10;68.90
24430;DHT22;12613;47.408;8.412;2023-08-31T13:56:47;21.10;69.10
24430;DHT22;12613;47.408;8.412;2023-08-31T13:59:15;21.10;69.10
24430;DHT22;12613;47.408;8.412;2023-08-31T14:01:41;21.10;69.60
24430;DHT22;12613;47.408;8.412;2023-08-31T14:04:06;21.00;69.40
24430;DHT22;12613;47.408;8.412;2023-08-31T14:06:32;21.00;69.60
24430;DHT22;12613;47.408;8.412;2023-08-31T14:08:58;21.00;69.00
24430;DHT22;12613;47.408;8.412;2023-08-31T14:11:23;21.00;69.40
24430;DHT22;12613;47.408;8.412;2023-08-31T14:13:49;21.00;69.60
24430;DHT22;12613;47.408;8.412;2023-08-31T14:16:15;21.00;70.50
24430;DHT22;12613;47.408;8.412;2023-08-31T14:18:40;21.20;70.90
24430;DHT22;12613;47.408;8.412;2023-08-31T14:21:06;21.20;70.10
24430;DHT22;12613;47.408;8.412;2023-08-31T14:23:32;21.20;70.20
24430;DHT22;12613;47.408;8.412;2023-08-31T14:26:03;21.30;70.50
24430;DHT22;12613;47.408;8.412;2023-08-31T14:28:30;21.40;71.10
24430;DHT22;12613;47.408;8.412;2023-08-31T14:30:56;21.50;70.60
24430;DHT22;12613;47.408;8.412;2023-08-31T14:33:21;21.60;71.60
24430;DHT22;12613;47.408;8.412;2023-08-31T14:35:49;21.80;71.70
24430;DHT22;12613;47.408;8.412;2023-08-31T14:38:20;22.00;71.10
24430;DHT22;12613;47.408;8.412;2023-08-31T14:40:46;21.90;69.40
24430;DHT22;12613;47.408;8.412;2023-08-31T14:43:12;21.80;69.10
24430;DHT22;12613;47.408;8.412;2023-08-31T14:45:37;21.80;69.70
24430;DHT22;12613;47.408;8.412;2023-08-31T14:48:04;21.90;70.60
24430;DHT22;12613;47.408;8.412;2023-08-31T14:50:29;21.80;70.00
24430;DHT22;12613;47.408;8.412;2023-08-31T14:52:55;21.90;69.40
24430;DHT22;12613;47.408;8.412;2023-08-31T14:55:21;21.90;70.10
24430;DHT22;12613;47.408;8.412;2023-08-31T14:57:46;21.90;70.40
24430;DHT22;12613;47.408;8.412;2023-08-31T15:00:12;22.00;70.90
24430;DHT22;12613;47.408;8.412;2023-08-31T15:02:38;22.10;69.40
24430;DHT22;12613;47.408;8.412;2023-08-31T15:05:05;22.10;69.50
24430;DHT22;12613;47.408;8.412;2023-08-31T15:07:31;22.20;69.60
24430;DHT22;12613;47.408;8.412;2023-08-31T15:09:56;22.10;68.40
24430;DHT22;12613;47.408;8.412;2023-08-31T15:12:22;22.10;67.90
24430;DHT22;12613;47.408;8.412;2023-08-31T15:14:48;21.90;67.40
24430;DHT22;12613;47.408;8.412;2023-08-31T15:17:14;21.90;67.70
24430;DHT22;12613;47.408;8.412;2023-08-31T15:19:39;21.80;68.00
24430;DHT22;12613;47.408;8.412;2023-08-31T15:22:05;21.70;67.90
24430;DHT22;12613;47.408;8.412;2023-08-31T15:24:30;21.70;68.20
24430;DHT22;12613;47.408;8.412;2023-08-31T15:26:57;21.70;68.60
24430;DHT22;12613;47.408;8.412;2023-08-31T15:29:24;21.70;68.70
24430;DHT22;12613;47.408;8.412;2023-08-31T15:31:50;21.70;68.60
24430;DHT22;12613;47.408;8.412;2023-08-31T15:34:16;21.70;68.80
24430;DHT22;12613;47.408;8.412;2023-08-31T15:36:41;21.60;68.50
24430;DHT22;12613;47.408;8.412;2023-08-31T15:39:07;21.50;68.10
24430;DHT22;12613;47.408;8.412;2023-08-31T15:41:33;21.40;68.70
24430;DHT22;12613;47.408;8.412;2023-08-31T15:44:02;21.30;68.60
24430;DHT22;12613;47.408;8.412;2023-08-31T15:46:31;21.30;69.20